createdAt,value
2019-04-28T00:00:45.039Z,2.10
2019-04-28T00:05:43.819Z,2.40
2019-04-28T00:08:13.607Z,2.20
2019-04-28T00:10:43.327Z,2.25
2019-04-28T00:13:13.486Z,2.30
2019-04-28T00:15:44.467Z,2.10
2019-04-28T00:18:14.322Z,2.47
2019-04-28T00:21:00.965Z,1.95
2019-04-28T00:23:35.383Z,2.17
2019-04-28T00:26:04.792Z,2.25
2019-04-28T00:28:34.600Z,2.02
2019-04-28T00:31:04.461Z,2.05
2019-04-28T00:33:34.105Z,2.30
2019-04-28T00:36:03.858Z,2.40
2019-04-28T00:38:33.506Z,2.40
2019-04-28T00:41:03.294Z,2.67
2019-04-28T00:43:33.063Z,1.92
2019-04-28T00:46:04.496Z,2.22
2019-04-28T00:48:34.228Z,2.40
2019-04-28T00:51:03.917Z,2.08
2019-04-28T00:53:33.648Z,2.47
2019-04-28T00:56:03.730Z,2.83
2019-04-28T00:58:33.434Z,2.30
2019-04-28T01:01:02.895Z,2.70
2019-04-28T01:03:32.511Z,2.35
2019-04-28T01:06:02.064Z,2.52
2019-04-28T01:08:31.832Z,2.33
2019-04-28T01:11:01.854Z,2.30
2019-04-28T01:13:32.028Z,2.33
2019-04-28T01:16:13.502Z,2.37
2019-04-28T01:18:50.291Z,2.10
2019-04-28T01:21:20.372Z,2.22
2019-04-28T01:23:50.397Z,2.92
2019-04-28T01:26:20.140Z,2.75
2019-04-28T01:28:49.913Z,2.17
2019-04-28T01:31:30.053Z,2.75
2019-04-28T01:34:02.291Z,2.40
2019-04-28T01:36:32.403Z,2.60
2019-04-28T01:39:02.023Z,2.92
2019-04-28T01:41:31.676Z,2.22
2019-04-28T01:44:01.512Z,2.40
2019-04-28T01:46:31.218Z,2.90
2019-04-28T01:49:00.852Z,2.37
2019-04-28T01:51:30.629Z,2.47
2019-04-28T01:54:00.504Z,2.42
2019-04-28T01:56:30.469Z,2.67
2019-04-28T01:59:00.416Z,2.47
2019-04-28T02:01:30.334Z,3.22
2019-04-28T02:04:00.322Z,2.50
2019-04-28T02:06:30.155Z,2.50
2019-04-28T02:09:00.903Z,2.30
2019-04-28T02:11:30.584Z,2.70
2019-04-28T02:14:00.244Z,2.30
2019-04-28T02:16:29.842Z,2.85
2019-04-28T02:18:59.834Z,2.80
2019-04-28T02:21:44.125Z,3.15
2019-04-28T02:24:30.959Z,2.85
2019-04-28T02:27:01.561Z,3.00
2019-04-28T02:29:31.740Z,2.60
2019-04-28T02:32:02.361Z,2.80
2019-04-28T02:34:32.493Z,3.37
2019-04-28T02:37:02.300Z,3.20
2019-04-28T02:39:32.672Z,3.00
2019-04-28T02:42:02.406Z,3.35
2019-04-28T02:44:35.045Z,3.52
2019-04-28T02:47:03.735Z,3.50
2019-04-28T02:49:40.522Z,3.50
2019-04-28T02:52:30.896Z,3.15
2019-04-28T02:55:03.005Z,3.75
2019-04-28T02:57:32.663Z,3.67
2019-04-28T03:00:02.451Z,3.12
2019-04-28T03:02:32.287Z,3.27
2019-04-28T03:05:02.091Z,3.37
2019-04-28T03:07:31.832Z,3.35
2019-04-28T03:10:03.780Z,3.50
2019-04-28T03:12:33.264Z,4.00
2019-04-28T03:15:03.002Z,4.12
2019-04-28T03:17:32.777Z,3.15
2019-04-28T03:20:02.500Z,4.12
2019-04-28T03:22:33.657Z,3.95
2019-04-28T03:25:05.941Z,4.00
2019-04-28T03:27:42.768Z,4.67
2019-04-28T03:30:33.762Z,3.80
2019-04-28T03:33:10.981Z,4.25
2019-04-28T03:35:34.918Z,4.40
2019-04-28T03:38:04.610Z,3.65
2019-04-28T03:40:34.464Z,3.77
2019-04-28T03:43:04.389Z,4.20
2019-04-28T03:45:35.911Z,3.62
2019-04-28T03:48:05.716Z,4.28
2019-04-28T03:50:35.405Z,4.12
2019-04-28T03:53:05.159Z,3.50
2019-04-28T03:55:35.113Z,4.03
2019-04-28T03:58:05.361Z,4.10
2019-04-28T04:00:35.304Z,3.90
2019-04-28T04:03:05.188Z,4.47
2019-04-28T04:05:35.882Z,4.30
2019-04-28T04:08:06.103Z,4.60
2019-04-28T04:10:40.163Z,4.55
2019-04-28T04:13:11.144Z,4.12
2019-04-28T04:16:01.611Z,4.78
2019-04-28T04:18:41.479Z,4.00
2019-04-28T04:21:12.279Z,4.50
2019-04-28T04:23:43.222Z,4.62
2019-04-28T04:26:13.497Z,4.20
2019-04-28T04:28:43.632Z,5.12
2019-04-28T04:31:13.859Z,4.12
2019-04-28T04:33:44.204Z,4.17
2019-04-28T04:36:14.364Z,4.55
2019-04-28T04:38:46.463Z,4.55
2019-04-28T04:41:16.564Z,4.62
2019-04-28T04:43:47.888Z,4.00
2019-04-28T04:46:22.068Z,4.33
2019-04-28T04:48:51.711Z,5.00
2019-04-28T04:51:21.946Z,5.17
2019-04-28T04:53:52.333Z,4.70
2019-04-28T04:56:22.848Z,4.62
2019-04-28T04:58:53.120Z,4.80
2019-04-28T05:01:27.663Z,5.25
2019-04-28T05:03:59.671Z,4.65
2019-04-28T05:06:37.563Z,5.50
2019-04-28T05:09:11.944Z,4.92
2019-04-28T05:11:42.471Z,4.22
2019-04-28T05:14:12.818Z,4.10
2019-04-28T05:16:43.349Z,4.55
2019-04-28T05:19:13.549Z,4.15
2019-04-28T05:21:44.046Z,3.87
2019-04-28T05:24:31.198Z,4.20
2019-04-28T05:27:01.315Z,3.80
2019-04-28T05:29:31.557Z,3.25
2019-04-28T05:32:03.405Z,3.20
2019-04-28T05:37:03.430Z,3.47
2019-04-28T05:39:33.721Z,3.37
2019-04-28T05:42:04.156Z,3.77
2019-04-28T05:44:37.404Z,3.42
2019-04-28T05:49:43.637Z,3.52
2019-04-28T05:52:33.799Z,3.75
2019-04-28T05:55:20.326Z,3.40
2019-04-28T05:58:09.842Z,3.25
2019-04-28T06:00:41.945Z,3.17
2019-04-28T06:03:13.708Z,3.02
2019-04-28T06:05:43.935Z,3.50
2019-04-28T06:08:21.483Z,3.22
2019-04-28T06:10:51.798Z,3.47
2019-04-28T06:13:22.187Z,3.60
2019-04-28T06:15:52.569Z,4.37
2019-04-28T06:18:22.911Z,3.37
2019-04-28T06:20:53.219Z,3.67
2019-04-28T06:23:23.389Z,3.98
2019-04-28T06:25:53.640Z,4.33
2019-04-28T06:28:24.169Z,4.45
2019-04-28T06:30:54.413Z,3.98
2019-04-28T06:33:24.522Z,4.00
2019-04-28T06:35:54.762Z,4.50
2019-04-28T06:38:25.006Z,4.33
2019-04-28T06:40:55.154Z,3.83
2019-04-28T06:43:25.436Z,4.10
2019-04-28T06:45:55.866Z,4.15
2019-04-28T06:48:26.348Z,3.72
2019-04-28T06:50:56.790Z,4.00
2019-04-28T06:53:27.067Z,4.47
2019-04-28T06:55:57.455Z,3.98
2019-04-28T06:58:27.869Z,4.17
2019-04-28T07:00:58.289Z,4.33
2019-04-28T07:03:28.636Z,4.20
2019-04-28T07:05:58.911Z,4.03
2019-04-28T07:08:29.221Z,3.92
2019-04-28T07:10:59.385Z,4.45
2019-04-28T07:13:29.596Z,3.62
2019-04-28T07:15:59.704Z,3.60
2019-04-28T07:18:30.019Z,3.52
2019-04-28T07:21:01.819Z,3.42
2019-04-28T07:23:33.079Z,3.70
2019-04-28T07:26:03.442Z,4.00
2019-04-28T07:28:33.906Z,3.80
2019-04-28T07:31:04.537Z,3.22
2019-04-28T07:33:36.289Z,3.75
2019-04-28T07:36:07.294Z,3.45
2019-04-28T07:38:37.712Z,3.62
2019-04-28T07:41:08.127Z,4.03
2019-04-28T07:43:38.246Z,3.92
2019-04-28T07:46:08.421Z,3.77
2019-04-28T07:48:38.621Z,3.50
2019-04-28T07:51:08.772Z,3.47
2019-04-28T07:53:52.823Z,3.87
2019-04-28T07:56:23.403Z,3.75
2019-04-28T07:58:53.784Z,3.50
2019-04-28T08:01:24.151Z,4.03
2019-04-28T08:03:57.376Z,3.83
2019-04-28T08:06:27.095Z,3.87
2019-04-28T08:08:57.315Z,3.62
2019-04-28T08:11:27.523Z,3.45
2019-04-28T08:13:57.860Z,3.70
2019-04-28T08:16:28.173Z,3.70
2019-04-28T08:18:58.709Z,3.62
2019-04-28T08:21:28.816Z,3.70
2019-04-28T08:23:59.260Z,3.55
2019-04-28T08:26:29.646Z,3.42
2019-04-28T08:29:00.160Z,3.42
2019-04-28T08:31:50.040Z,3.77
2019-04-28T08:34:21.775Z,3.98
2019-04-28T08:36:52.007Z,3.75
2019-04-28T08:39:25.047Z,4.08
2019-04-28T08:41:54.630Z,4.65
2019-04-28T08:44:24.988Z,4.17
2019-04-28T08:46:55.535Z,3.58
2019-04-28T08:49:25.793Z,4.60
2019-04-28T08:51:55.988Z,3.83
2019-04-28T08:54:26.223Z,4.30
2019-04-28T08:56:56.593Z,4.08
2019-04-28T08:59:26.900Z,4.35
2019-04-28T09:01:57.126Z,4.17
2019-04-28T09:04:27.241Z,4.28
2019-04-28T09:06:57.462Z,3.50
2019-04-28T09:09:27.719Z,3.30
2019-04-28T09:11:58.135Z,3.77
2019-04-28T09:14:28.499Z,4.08
2019-04-28T09:16:58.774Z,3.30
2019-04-28T09:19:29.143Z,3.00
2019-04-28T09:21:59.621Z,3.10
2019-04-28T09:24:30.311Z,3.05
2019-04-28T09:27:00.939Z,3.60
2019-04-28T09:29:31.305Z,2.40
2019-04-28T09:32:01.346Z,3.33
2019-04-28T09:34:31.671Z,2.90
2019-04-28T09:37:02.093Z,2.72
2019-04-28T09:39:43.139Z,2.83
2019-04-28T09:42:31.415Z,2.90
2019-04-28T09:45:03.920Z,3.10
2019-04-28T09:47:34.080Z,2.58
2019-04-28T09:50:05.317Z,2.33
2019-04-28T09:52:35.696Z,2.47
2019-04-28T09:55:07.274Z,2.80
2019-04-28T09:57:37.814Z,2.60
2019-04-28T10:00:10.296Z,2.40
2019-04-28T10:02:40.836Z,2.90
2019-04-28T10:05:12.181Z,3.20
2019-04-28T10:07:42.389Z,2.83
2019-04-28T10:10:13.332Z,2.30
2019-04-28T10:13:37.785Z,1.87
2019-04-28T10:16:08.214Z,1.80
2019-04-28T10:18:38.408Z,2.02
2019-04-28T10:21:09.032Z,2.25
2019-04-28T10:23:39.372Z,2.60
2019-04-28T10:26:09.691Z,2.35
2019-04-28T10:28:40.268Z,3.00
2019-04-28T10:31:13.328Z,3.40
2019-04-28T10:36:14.910Z,2.72
2019-04-28T10:38:46.590Z,2.83
2019-04-28T10:41:21.420Z,2.83
2019-04-28T10:43:51.682Z,2.02
2019-04-28T10:46:22.169Z,2.22
2019-04-28T10:48:52.482Z,3.17
2019-04-28T10:51:22.748Z,2.45
2019-04-28T10:53:53.146Z,2.37
2019-04-28T10:56:23.504Z,2.55
2019-04-28T10:58:55.208Z,2.20
2019-04-28T11:01:25.413Z,1.77
2019-04-28T11:03:57.521Z,1.67
2019-04-28T11:09:09.012Z,1.57
2019-04-28T11:11:39.368Z,1.82
2019-04-28T11:14:09.470Z,1.50
2019-04-28T11:16:40.220Z,1.87
2019-04-28T11:19:11.437Z,1.55
2019-04-28T11:21:41.680Z,1.90
2019-04-28T11:24:12.003Z,2.02
2019-04-28T11:26:42.213Z,1.67
2019-04-28T11:29:12.559Z,1.70
2019-04-28T11:31:42.864Z,1.60
2019-04-28T11:34:20.657Z,1.95
2019-04-28T11:36:50.985Z,1.52
2019-04-28T11:39:22.775Z,2.10
2019-04-28T11:41:53.267Z,1.77
2019-04-28T11:44:23.409Z,1.92
2019-04-28T11:46:53.926Z,2.20
2019-04-28T11:49:24.083Z,2.12
2019-04-28T11:51:54.181Z,2.12
2019-04-28T11:54:24.610Z,2.15
2019-04-28T11:56:54.828Z,2.50
2019-04-28T11:59:25.551Z,2.30
2019-04-28T12:01:56.496Z,2.12
2019-04-28T12:04:27.096Z,2.42
2019-04-28T12:06:57.414Z,2.00
2019-04-28T12:09:27.484Z,2.08
2019-04-28T12:12:02.351Z,2.10
2019-04-28T12:14:34.051Z,1.95
2019-04-28T12:17:21.973Z,1.87
2019-04-28T12:19:56.713Z,1.98
2019-04-28T12:22:27.213Z,2.10
2019-04-28T12:24:57.491Z,1.90
2019-04-28T12:27:27.791Z,1.50
2019-04-28T12:29:58.108Z,1.85
2019-04-28T12:32:28.104Z,1.82
2019-04-28T12:34:58.474Z,1.75
2019-04-28T12:37:28.851Z,1.62
2019-04-28T12:39:59.213Z,1.50
2019-04-28T12:42:29.474Z,1.98
2019-04-28T12:44:59.586Z,1.80
2019-04-28T12:47:29.878Z,1.25
2019-04-28T12:50:10.452Z,1.67
2019-04-28T12:52:40.782Z,1.65
2019-04-28T12:55:11.334Z,1.50
2019-04-28T12:57:41.668Z,1.70
2019-04-28T13:00:22.647Z,1.80
2019-04-28T13:03:10.367Z,2.08
2019-04-28T13:05:42.258Z,1.60
2019-04-28T13:08:12.548Z,2.15
2019-04-28T13:10:42.920Z,2.00
2019-04-28T13:13:13.126Z,1.40
2019-04-28T13:15:43.477Z,1.42
2019-04-28T13:18:13.800Z,1.70
2019-04-28T13:20:43.922Z,2.27
2019-04-28T13:23:13.969Z,1.65
2019-04-28T13:25:44.262Z,1.50
2019-04-28T13:28:14.545Z,1.60
2019-04-28T13:30:45.156Z,1.37
2019-04-28T13:33:15.542Z,1.40
2019-04-28T13:35:45.935Z,1.52
2019-04-28T13:38:16.369Z,1.32
2019-04-28T13:40:46.780Z,1.47
2019-04-28T13:43:17.245Z,1.95
2019-04-28T13:45:47.563Z,2.00
2019-04-28T13:48:17.890Z,1.98
2019-04-28T13:50:49.115Z,1.87
2019-04-28T13:53:19.688Z,1.82
2019-04-28T13:55:51.629Z,1.10
2019-04-28T13:58:32.997Z,1.40
2019-04-28T14:01:04.706Z,1.85
2019-04-28T14:03:39.492Z,1.50
2019-04-28T14:06:28.004Z,1.70
2019-04-28T14:08:51.723Z,1.65
2019-04-28T14:11:21.962Z,1.32
2019-04-28T14:13:52.396Z,1.50
2019-04-28T14:16:22.583Z,1.60
2019-04-28T14:18:52.829Z,1.72
2019-04-28T14:21:23.225Z,1.60
2019-04-28T14:23:53.686Z,1.82
2019-04-28T14:26:23.915Z,2.10
2019-04-28T14:28:54.163Z,1.70
2019-04-28T14:31:24.601Z,1.45
2019-04-28T14:33:55.301Z,2.00
2019-04-28T14:36:25.488Z,1.92
2019-04-28T14:38:55.865Z,2.05
2019-04-28T14:41:26.199Z,1.75
2019-04-28T14:43:56.526Z,1.98
2019-04-28T14:46:27.062Z,1.98
2019-04-28T14:48:57.168Z,1.80
2019-04-28T14:51:27.508Z,2.15
2019-04-28T14:53:57.781Z,1.98
2019-04-28T14:56:27.981Z,1.70
2019-04-28T14:58:58.257Z,1.70
2019-04-28T15:01:46.450Z,1.70
2019-04-28T15:04:21.228Z,1.65
2019-04-28T15:06:59.302Z,1.82
2019-04-28T15:09:32.968Z,1.42
2019-04-28T15:12:04.746Z,1.60
2019-04-28T15:14:35.020Z,1.80
2019-04-28T15:17:05.354Z,1.90
2019-04-28T15:19:35.589Z,2.00
2019-04-28T15:22:06.022Z,1.87
2019-04-28T15:24:36.244Z,1.90
2019-04-28T15:27:06.624Z,1.60
2019-04-28T15:29:36.679Z,1.92
2019-04-28T15:32:06.993Z,1.40
2019-04-28T15:34:37.345Z,1.50
2019-04-28T15:37:09.868Z,1.37
2019-04-28T15:39:39.719Z,1.32
2019-04-28T15:42:10.001Z,1.30
2019-04-28T15:44:40.172Z,1.50
2019-04-28T15:47:10.285Z,1.25
2019-04-28T15:49:40.480Z,1.15
2019-04-28T15:52:10.721Z,1.60
2019-04-28T16:08:15.369Z,1.10
2019-04-28T16:10:45.572Z,1.00
2019-04-28T16:13:15.811Z,1.20
2019-04-28T16:15:46.096Z,1.07
2019-04-28T16:18:16.387Z,1.02
2019-04-28T16:20:46.718Z,1.10
2019-04-28T16:23:16.914Z,1.22
2019-04-28T16:25:47.186Z,1.05
2019-04-28T16:28:17.428Z,1.10
2019-04-28T16:30:47.557Z,1.00
2019-04-28T16:33:18.198Z,1.20
2019-04-28T16:35:48.604Z,1.50
2019-04-28T16:38:19.137Z,1.30
2019-04-28T16:40:57.916Z,1.20
2019-04-28T16:43:30.336Z,1.25
2019-04-28T16:46:00.474Z,1.30
2019-04-28T16:48:30.704Z,1.60
2019-04-28T16:51:01.025Z,1.47
2019-04-28T16:53:31.115Z,1.20
2019-04-28T16:56:09.263Z,1.45
2019-04-28T16:58:47.407Z,1.30
2019-04-28T17:01:19.136Z,1.47
2019-04-28T17:03:49.252Z,1.55
2019-04-28T17:06:19.787Z,1.25
2019-04-28T17:08:50.253Z,0.95
2019-04-28T17:11:20.595Z,1.20
2019-04-28T17:13:50.818Z,1.27
2019-04-28T17:16:20.934Z,1.40
2019-04-28T17:18:51.275Z,1.47
2019-04-28T17:21:21.553Z,1.57
2019-04-28T17:23:51.662Z,1.40
2019-04-28T17:26:22.214Z,1.60
2019-04-28T17:28:52.702Z,1.60
2019-04-28T17:31:23.164Z,1.35
2019-04-28T17:33:53.457Z,1.20
2019-04-28T17:36:23.727Z,1.40
2019-04-28T17:38:54.250Z,1.55
2019-04-28T17:41:25.122Z,1.30
2019-04-28T17:43:55.419Z,1.30
2019-04-28T17:46:25.817Z,1.00
2019-04-28T17:49:00.539Z,1.12
2019-04-28T17:51:31.109Z,1.47
2019-04-28T17:54:01.213Z,1.02
2019-04-28T17:56:31.514Z,1.22
2019-04-28T17:59:01.758Z,1.10
2019-04-28T18:01:49.743Z,1.12
2019-04-28T18:04:22.441Z,1.52
2019-04-28T18:07:00.463Z,0.95
2019-04-28T18:09:31.003Z,1.25
2019-04-28T18:12:00.980Z,1.42
2019-04-28T18:14:31.341Z,1.30
2019-04-28T18:17:06.534Z,1.30
2019-04-28T18:19:37.203Z,1.20
2019-04-28T18:22:07.522Z,1.50
2019-04-28T18:24:39.923Z,1.10
2019-04-28T18:27:09.573Z,1.50
2019-04-28T18:29:39.810Z,1.40
2019-04-28T18:32:17.626Z,1.32
2019-04-28T18:34:52.229Z,1.50
2019-04-28T18:37:24.722Z,1.32
2019-04-28T18:40:11.541Z,1.47
2019-04-28T18:42:49.114Z,1.07
2019-04-28T18:45:19.367Z,1.17
2019-04-28T18:47:49.648Z,1.10
2019-04-28T18:50:19.897Z,1.27
2019-04-28T18:52:50.137Z,1.20
2019-04-28T18:55:20.618Z,1.25
2019-04-28T18:57:50.874Z,0.95
2019-04-28T19:00:22.506Z,1.17
2019-04-28T19:02:52.795Z,1.17
2019-04-28T19:05:23.995Z,1.25
2019-04-28T19:08:02.320Z,0.90
2019-04-28T19:10:40.297Z,1.25
2019-04-28T19:13:11.505Z,1.30
2019-04-28T19:15:41.033Z,1.20
2019-04-28T19:18:18.557Z,1.17
2019-04-28T19:20:48.325Z,1.17
2019-04-28T19:23:18.023Z,1.55
2019-04-28T19:25:47.805Z,1.20
2019-04-28T19:28:20.329Z,1.20
2019-04-28T19:30:50.041Z,1.20
2019-04-28T19:33:19.608Z,1.30
2019-04-28T19:35:49.284Z,1.30
2019-04-28T19:38:18.860Z,1.30
2019-04-28T19:40:48.518Z,1.40
2019-04-28T19:43:18.275Z,1.40
2019-04-28T19:45:49.867Z,1.85
2019-04-28T19:48:19.508Z,1.32
2019-04-28T19:50:49.408Z,1.75
2019-04-28T19:53:19.142Z,1.47
2019-04-28T19:55:56.480Z,1.70
2019-04-28T19:58:44.028Z,1.72
2019-04-28T20:01:21.185Z,1.65
2019-04-28T20:03:50.779Z,1.90
2019-04-28T20:06:20.489Z,1.92
2019-04-28T20:08:50.085Z,1.70
2019-04-28T20:11:19.905Z,2.00
2019-04-28T20:13:49.596Z,2.40
2019-04-28T20:16:19.262Z,1.98
2019-04-28T20:18:49.152Z,2.10
2019-04-28T20:21:18.864Z,1.92
2019-04-28T20:23:48.480Z,2.10
2019-04-28T20:26:18.156Z,4.00
2019-04-28T20:28:47.871Z,2.55
2019-04-28T20:31:17.544Z,2.35
2019-04-28T20:33:47.333Z,2.30
2019-04-28T20:36:22.755Z,2.30
2019-04-28T20:38:53.941Z,2.17
2019-04-28T20:41:25.263Z,2.10
2019-04-28T20:43:56.144Z,2.70
2019-04-28T20:46:25.769Z,2.60
2019-04-28T20:48:55.596Z,2.95
2019-04-28T20:51:25.187Z,2.50
2019-04-28T20:53:54.840Z,2.55
2019-04-28T20:56:24.593Z,2.87
2019-04-28T20:58:54.316Z,2.92
2019-04-28T21:01:24.065Z,2.40
2019-04-28T21:03:53.650Z,2.60
2019-04-28T21:06:23.347Z,2.75
2019-04-28T21:08:52.917Z,2.80
2019-04-28T21:11:22.574Z,2.95
2019-04-28T21:13:52.272Z,2.72
2019-04-28T21:16:21.800Z,2.80
2019-04-28T21:18:51.333Z,3.50
2019-04-28T21:21:20.943Z,2.95
2019-04-28T21:23:50.515Z,3.33
2019-04-28T21:26:20.306Z,3.02
2019-04-28T21:28:51.148Z,3.40
2019-04-28T21:31:20.737Z,3.40
2019-04-28T21:33:50.587Z,3.67
2019-04-28T21:36:20.304Z,3.52
2019-04-28T21:38:50.689Z,3.65
2019-04-28T21:41:20.400Z,4.00
2019-04-28T21:43:51.752Z,3.75
2019-04-28T21:46:32.439Z,3.52
2019-04-28T21:49:03.756Z,3.40
2019-04-28T21:51:33.414Z,3.87
2019-04-28T21:54:03.136Z,3.92
2019-04-28T21:56:32.753Z,3.60
2019-04-28T21:59:02.520Z,3.70
2019-04-28T22:01:32.508Z,4.33
2019-04-28T22:04:02.180Z,4.55
2019-04-28T22:06:31.912Z,5.00
2019-04-28T22:09:01.498Z,4.45
2019-04-28T22:11:31.266Z,4.35
2019-04-28T22:14:00.823Z,4.50
2019-04-28T22:16:30.424Z,4.25
2019-04-28T22:19:00.466Z,4.40
2019-04-28T22:21:30.163Z,4.85
2019-04-28T22:24:10.153Z,4.85
2019-04-28T22:26:43.077Z,4.58
2019-04-28T22:29:13.650Z,4.83
2019-04-28T22:31:44.792Z,4.55
2019-04-28T22:34:15.882Z,4.97
2019-04-28T22:36:46.627Z,4.90
2019-04-28T22:39:16.912Z,4.53
2019-04-28T22:41:46.567Z,4.15
2019-04-28T22:44:16.208Z,4.45
2019-04-28T22:46:45.727Z,4.80
2019-04-28T22:49:15.512Z,3.42
2019-04-28T22:51:45.269Z,4.97
2019-04-28T22:54:19.621Z,5.10
2019-04-28T22:56:50.946Z,5.10
2019-04-28T22:59:25.104Z,5.20
2019-04-28T23:02:02.327Z,5.28
2019-04-28T23:04:33.764Z,4.33
2019-04-28T23:07:03.539Z,4.83
2019-04-28T23:09:33.545Z,5.20
2019-04-28T23:12:03.883Z,5.42
2019-04-28T23:14:33.517Z,5.17
2019-04-28T23:17:03.580Z,4.92
2019-04-28T23:19:35.020Z,4.75
2019-04-28T23:22:06.737Z,5.50
2019-04-28T23:24:36.495Z,5.37
2019-04-28T23:27:06.301Z,5.62
2019-04-28T23:29:35.996Z,5.30
2019-04-28T23:32:05.789Z,5.75
2019-04-28T23:34:35.525Z,4.33
2019-04-28T23:37:05.412Z,4.60
2019-04-28T23:39:35.186Z,5.15
2019-04-28T23:42:09.066Z,5.28
2019-04-28T23:44:38.652Z,5.00
2019-04-28T23:47:08.320Z,4.90
2019-04-28T23:49:38.038Z,5.15
2019-04-28T23:52:21.058Z,4.67
2019-04-28T23:54:52.383Z,4.90
2019-04-28T23:57:22.103Z,4.97
2019-04-28T23:59:51.737Z,5.35
